sensor_id;sensor_type;location;lat;lon;timestamp;P1;durP1;ratioP1;P2;durP2;ratioP2
19776;SDS011;10047;42.490;26.012;2023-12-14T00:01:27;201.30;;;43.75;;
19776;SDS011;10047;42.490;26.012;2023-12-14T00:03:52;126.93;;;43.92;;
19776;SDS011;10047;42.490;26.012;2023-12-14T00:06:18;215.63;;;51.90;;
19776;SDS011;10047;42.490;26.012;2023-12-14T00:08:43;133.10;;;44.83;;
19776;SDS011;10047;42.490;26.012;2023-12-14T00:11:10;214.80;;;48.85;;
19776;SDS011;10047;42.490;26.012;2023-12-14T00:13:36;98.22;;;42.65;;
19776;SDS011;10047;42.490;26.012;2023-12-14T00:16:02;91.38;;;41.80;;
19776;SDS011;10047;42.490;26.012;2023-12-14T00:18:28;100.82;;;43.30;;
19776;SDS011;10047;42.490;26.012;2023-12-14T00:20:53;97.78;;;45.00;;
19776;SDS011;10047;42.490;26.012;2023-12-14T00:23:19;100.63;;;43.92;;
19776;SDS011;10047;42.490;26.012;2023-12-14T00:25:45;86.53;;;41.90;;
19776;SDS011;10047;42.490;26.012;2023-12-14T00:28:10;116.20;;;46.75;;
19776;SDS011;10047;42.490;26.012;2023-12-14T00:30:36;101.68;;;43.65;;
19776;SDS011;10047;42.490;26.012;2023-12-14T00:33:01;192.80;;;51.83;;
19776;SDS011;10047;42.490;26.012;2023-12-14T00:35:27;148.38;;;48.55;;
19776;SDS011;10047;42.490;26.012;2023-12-14T00:37:52;104.80;;;51.58;;
19776;SDS011;10047;42.490;26.012;2023-12-14T00:40:18;180.50;;;50.08;;
19776;SDS011;10047;42.490;26.012;2023-12-14T00:42:43;218.70;;;50.67;;
19776;SDS011;10047;42.490;26.012;2023-12-14T00:45:09;128.57;;;49.83;;
19776;SDS011;10047;42.490;26.012;2023-12-14T00:47:35;123.45;;;48.75;;
19776;SDS011;10047;42.490;26.012;2023-12-14T00:50:00;127.10;;;51.72;;
19776;SDS011;10047;42.490;26.012;2023-12-14T00:52:27;136.07;;;48.47;;
19776;SDS011;10047;42.490;26.012;2023-12-14T00:54:52;169.60;;;46.78;;
19776;SDS011;10047;42.490;26.012;2023-12-14T00:57:18;98.63;;;44.35;;
19776;SDS011;10047;42.490;26.012;2023-12-14T00:59:43;124.50;;;48.45;;
19776;SDS011;10047;42.490;26.012;2023-12-14T01:02:09;184.82;;;48.15;;
19776;SDS011;10047;42.490;26.012;2023-12-14T01:04:34;122.40;;;44.20;;
19776;SDS011;10047;42.490;26.012;2023-12-14T01:07:00;123.20;;;44.75;;
19776;SDS011;10047;42.490;26.012;2023-12-14T01:09:25;104.60;;;43.45;;
19776;SDS011;10047;42.490;26.012;2023-12-14T01:11:51;107.15;;;44.88;;
19776;SDS011;10047;42.490;26.012;2023-12-14T01:14:16;123.13;;;45.03;;
19776;SDS011;10047;42.490;26.012;2023-12-14T01:16:44;177.25;;;47.58;;
19776;SDS011;10047;42.490;26.012;2023-12-14T01:19:09;131.80;;;47.28;;
19776;SDS011;10047;42.490;26.012;2023-12-14T01:21:35;120.72;;;48.85;;
19776;SDS011;10047;42.490;26.012;2023-12-14T01:24:00;154.63;;;46.45;;
19776;SDS011;10047;42.490;26.012;2023-12-14T01:26:26;110.93;;;43.38;;
19776;SDS011;10047;42.490;26.012;2023-12-14T01:28:52;116.72;;;45.45;;
19776;SDS011;10047;42.490;26.012;2023-12-14T01:31:18;101.38;;;43.72;;
19776;SDS011;10047;42.490;26.012;2023-12-14T01:33:43;114.95;;;42.90;;
19776;SDS011;10047;42.490;26.012;2023-12-14T01:36:11;158.20;;;46.42;;
19776;SDS011;10047;42.490;26.012;2023-12-14T01:38:36;93.72;;;45.20;;
19776;SDS011;10047;42.490;26.012;2023-12-14T01:41:03;99.30;;;45.03;;
19776;SDS011;10047;42.490;26.012;2023-12-14T01:43:28;101.07;;;43.13;;
19776;SDS011;10047;42.490;26.012;2023-12-14T01:45:54;115.55;;;43.15;;
19776;SDS011;10047;42.490;26.012;2023-12-14T01:48:19;99.85;;;39.70;;
19776;SDS011;10047;42.490;26.012;2023-12-14T01:50:45;133.20;;;44.35;;
19776;SDS011;10047;42.490;26.012;2023-12-14T01:53:10;100.20;;;41.78;;
19776;SDS011;10047;42.490;26.012;2023-12-14T01:55:36;120.57;;;41.20;;
19776;SDS011;10047;42.490;26.012;2023-12-14T01:58:02;116.07;;;44.67;;
19776;SDS011;10047;42.490;26.012;2023-12-14T02:00:39;89.20;;;41.25;;
19776;SDS011;10047;42.490;26.012;2023-12-14T02:03:11;141.73;;;45.45;;
19776;SDS011;10047;42.490;26.012;2023-12-14T02:05:37;156.13;;;45.85;;
19776;SDS011;10047;42.490;26.012;2023-12-14T02:08:02;188.43;;;47.25;;
19776;SDS011;10047;42.490;26.012;2023-12-14T02:10:28;97.38;;;43.03;;
19776;SDS011;10047;42.490;26.012;2023-12-14T02:12:54;172.10;;;43.95;;
19776;SDS011;10047;42.490;26.012;2023-12-14T02:15:19;107.32;;;41.83;;
19776;SDS011;10047;42.490;26.012;2023-12-14T02:17:45;174.85;;;41.30;;
19776;SDS011;10047;42.490;26.012;2023-12-14T02:20:11;156.18;;;42.75;;
19776;SDS011;10047;42.490;26.012;2023-12-14T02:22:49;123.15;;;41.30;;
19776;SDS011;10047;42.490;26.012;2023-12-14T02:25:17;103.80;;;39.92;;
19776;SDS011;10047;42.490;26.012;2023-12-14T02:27:44;95.68;;;39.65;;
19776;SDS011;10047;42.490;26.012;2023-12-14T02:30:10;142.68;;;40.17;;
19776;SDS011;10047;42.490;26.012;2023-12-14T02:32:37;141.23;;;42.47;;
19776;SDS011;10047;42.490;26.012;2023-12-14T02:35:03;136.23;;;41.92;;
19776;SDS011;10047;42.490;26.012;2023-12-14T02:37:29;166.82;;;42.10;;
19776;SDS011;10047;42.490;26.012;2023-12-14T02:39:54;126.72;;;43.13;;
19776;SDS011;10047;42.490;26.012;2023-12-14T02:42:20;165.45;;;43.80;;
19776;SDS011;10047;42.490;26.012;2023-12-14T02:44:46;152.98;;;44.53;;
19776;SDS011;10047;42.490;26.012;2023-12-14T02:47:11;119.18;;;44.53;;
19776;SDS011;10047;42.490;26.012;2023-12-14T02:49:37;131.85;;;44.22;;
19776;SDS011;10047;42.490;26.012;2023-12-14T02:52:11;189.43;;;44.20;;
19776;SDS011;10047;42.490;26.012;2023-12-14T02:54:38;172.73;;;44.30;;
19776;SDS011;10047;42.490;26.012;2023-12-14T02:57:04;153.75;;;46.67;;
19776;SDS011;10047;42.490;26.012;2023-12-14T02:59:29;212.05;;;48.40;;
19776;SDS011;10047;42.490;26.012;2023-12-14T03:01:55;139.52;;;45.15;;
19776;SDS011;10047;42.490;26.012;2023-12-14T03:04:21;456.83;;;125.30;;
19776;SDS011;10047;42.490;26.012;2023-12-14T03:06:46;232.93;;;62.05;;
19776;SDS011;10047;42.490;26.012;2023-12-14T03:09:12;169.02;;;50.30;;
19776;SDS011;10047;42.490;26.012;2023-12-14T03:11:37;177.73;;;60.15;;
19776;SDS011;10047;42.490;26.012;2023-12-14T03:14:03;267.05;;;59.10;;
19776;SDS011;10047;42.490;26.012;2023-12-14T03:16:28;135.93;;;52.97;;
19776;SDS011;10047;42.490;26.012;2023-12-14T03:18:54;127.38;;;67.43;;
19776;SDS011;10047;42.490;26.012;2023-12-14T03:21:21;146.02;;;55.88;;
19776;SDS011;10047;42.490;26.012;2023-12-14T03:23:47;125.40;;;44.67;;
19776;SDS011;10047;42.490;26.012;2023-12-14T03:26:13;95.35;;;42.03;;
19776;SDS011;10047;42.490;26.012;2023-12-14T03:28:39;187.48;;;52.00;;
19776;SDS011;10047;42.490;26.012;2023-12-14T03:31:04;126.47;;;51.15;;
19776;SDS011;10047;42.490;26.012;2023-12-14T03:33:30;148.60;;;48.33;;
19776;SDS011;10047;42.490;26.012;2023-12-14T03:35:55;164.88;;;46.80;;
19776;SDS011;10047;42.490;26.012;2023-12-14T03:38:21;146.68;;;46.30;;
19776;SDS011;10047;42.490;26.012;2023-12-14T03:40:47;121.13;;;44.72;;
19776;SDS011;10047;42.490;26.012;2023-12-14T03:43:12;90.38;;;43.45;;
19776;SDS011;10047;42.490;26.012;2023-12-14T03:45:38;92.15;;;46.13;;
19776;SDS011;10047;42.490;26.012;2023-12-14T03:48:03;102.75;;;45.55;;
19776;SDS011;10047;42.490;26.012;2023-12-14T03:50:29;73.55;;;38.28;;
19776;SDS011;10047;42.490;26.012;2023-12-14T03:52:55;73.88;;;38.20;;
19776;SDS011;10047;42.490;26.012;2023-12-14T03:55:20;85.50;;;39.03;;
19776;SDS011;10047;42.490;26.012;2023-12-14T03:57:45;60.75;;;32.85;;
19776;SDS011;10047;42.490;26.012;2023-12-14T04:00:12;88.55;;;44.78;;
19776;SDS011;10047;42.490;26.012;2023-12-14T04:02:39;96.82;;;44.83;;
19776;SDS011;10047;42.490;26.012;2023-12-14T04:05:09;80.57;;;41.22;;
19776;SDS011;10047;42.490;26.012;2023-12-14T04:07:37;87.28;;;43.83;;
19776;SDS011;10047;42.490;26.012;2023-12-14T04:10:14;96.43;;;46.08;;
19776;SDS011;10047;42.490;26.012;2023-12-14T04:12:40;80.63;;;42.88;;
19776;SDS011;10047;42.490;26.012;2023-12-14T04:15:06;80.85;;;42.20;;
19776;SDS011;10047;42.490;26.012;2023-12-14T04:17:33;76.63;;;43.30;;
19776;SDS011;10047;42.490;26.012;2023-12-14T04:19:59;84.35;;;44.78;;
19776;SDS011;10047;42.490;26.012;2023-12-14T04:22:25;84.30;;;45.75;;
19776;SDS011;10047;42.490;26.012;2023-12-14T04:24:51;93.00;;;48.13;;
19776;SDS011;10047;42.490;26.012;2023-12-14T04:27:17;94.85;;;45.88;;
19776;SDS011;10047;42.490;26.012;2023-12-14T04:29:43;91.10;;;46.88;;
19776;SDS011;10047;42.490;26.012;2023-12-14T04:32:09;92.95;;;46.67;;
19776;SDS011;10047;42.490;26.012;2023-12-14T04:34:34;112.35;;;50.25;;
19776;SDS011;10047;42.490;26.012;2023-12-14T04:37:00;100.95;;;53.22;;
19776;SDS011;10047;42.490;26.012;2023-12-14T04:39:26;108.28;;;54.22;;
19776;SDS011;10047;42.490;26.012;2023-12-14T04:41:52;96.40;;;48.13;;
19776;SDS011;10047;42.490;26.012;2023-12-14T04:44:18;83.30;;;43.25;;
19776;SDS011;10047;42.490;26.012;2023-12-14T04:46:44;102.38;;;44.15;;
19776;SDS011;10047;42.490;26.012;2023-12-14T04:49:10;85.03;;;41.95;;
19776;SDS011;10047;42.490;26.012;2023-12-14T04:51:36;89.10;;;43.17;;
19776;SDS011;10047;42.490;26.012;2023-12-14T04:54:01;111.72;;;48.47;;
19776;SDS011;10047;42.490;26.012;2023-12-14T04:56:27;112.28;;;52.15;;
19776;SDS011;10047;42.490;26.012;2023-12-14T04:58:53;120.82;;;54.33;;
19776;SDS011;10047;42.490;26.012;2023-12-14T05:01:18;104.13;;;50.10;;
19776;SDS011;10047;42.490;26.012;2023-12-14T05:03:44;110.72;;;52.95;;
19776;SDS011;10047;42.490;26.012;2023-12-14T05:06:09;114.50;;;53.65;;
19776;SDS011;10047;42.490;26.012;2023-12-14T05:08:35;130.55;;;59.78;;
19776;SDS011;10047;42.490;26.012;2023-12-14T05:11:00;98.53;;;50.33;;
19776;SDS011;10047;42.490;26.012;2023-12-14T05:13:26;94.88;;;48.75;;
19776;SDS011;10047;42.490;26.012;2023-12-14T05:15:51;117.72;;;47.25;;
19776;SDS011;10047;42.490;26.012;2023-12-14T05:18:17;95.97;;;46.67;;
19776;SDS011;10047;42.490;26.012;2023-12-14T05:20:43;106.28;;;49.08;;
19776;SDS011;10047;42.490;26.012;2023-12-14T05:23:10;88.18;;;42.72;;
19776;SDS011;10047;42.490;26.012;2023-12-14T05:25:36;89.18;;;42.97;;
19776;SDS011;10047;42.490;26.012;2023-12-14T05:28:02;103.25;;;46.97;;
19776;SDS011;10047;42.490;26.012;2023-12-14T05:30:28;95.28;;;45.83;;
19776;SDS011;10047;42.490;26.012;2023-12-14T05:32:54;121.10;;;54.90;;
19776;SDS011;10047;42.490;26.012;2023-12-14T05:35:19;108.72;;;51.47;;
19776;SDS011;10047;42.490;26.012;2023-12-14T05:37:45;103.05;;;50.70;;
19776;SDS011;10047;42.490;26.012;2023-12-14T05:40:10;104.30;;;53.10;;
19776;SDS011;10047;42.490;26.012;2023-12-14T05:42:36;106.43;;;52.78;;
19776;SDS011;10047;42.490;26.012;2023-12-14T05:45:03;123.22;;;55.83;;
19776;SDS011;10047;42.490;26.012;2023-12-14T05:47:29;95.53;;;45.05;;
19776;SDS011;10047;42.490;26.012;2023-12-14T05:49:57;145.55;;;61.70;;
19776;SDS011;10047;42.490;26.012;2023-12-14T05:52:22;114.68;;;55.78;;
19776;SDS011;10047;42.490;26.012;2023-12-14T05:54:48;109.50;;;56.65;;
19776;SDS011;10047;42.490;26.012;2023-12-14T05:57:13;175.73;;;71.68;;
19776;SDS011;10047;42.490;26.012;2023-12-14T05:59:39;133.05;;;69.38;;
19776;SDS011;10047;42.490;26.012;2023-12-14T06:02:04;130.63;;;59.70;;
19776;SDS011;10047;42.490;26.012;2023-12-14T06:04:31;141.95;;;59.88;;
19776;SDS011;10047;42.490;26.012;2023-12-14T06:06:57;160.27;;;60.15;;
19776;SDS011;10047;42.490;26.012;2023-12-14T06:09:24;182.10;;;65.75;;
19776;SDS011;10047;42.490;26.012;2023-12-14T06:11:54;186.02;;;68.05;;
19776;SDS011;10047;42.490;26.012;2023-12-14T06:14:20;143.48;;;60.50;;
19776;SDS011;10047;42.490;26.012;2023-12-14T06:16:45;136.77;;;59.72;;
19776;SDS011;10047;42.490;26.012;2023-12-14T06:19:11;132.05;;;60.20;;
19776;SDS011;10047;42.490;26.012;2023-12-14T06:21:36;144.68;;;62.47;;
19776;SDS011;10047;42.490;26.012;2023-12-14T06:24:02;111.30;;;54.22;;
19776;SDS011;10047;42.490;26.012;2023-12-14T06:26:28;119.90;;;54.75;;
19776;SDS011;10047;42.490;26.012;2023-12-14T06:28:54;133.02;;;57.90;;
19776;SDS011;10047;42.490;26.012;2023-12-14T06:31:19;126.72;;;56.95;;
19776;SDS011;10047;42.490;26.012;2023-12-14T06:33:48;117.57;;;54.90;;
19776;SDS011;10047;42.490;26.012;2023-12-14T06:36:15;174.63;;;68.53;;
19776;SDS011;10047;42.490;26.012;2023-12-14T06:38:42;126.32;;;53.95;;
19776;SDS011;10047;42.490;26.012;2023-12-14T06:41:08;136.55;;;58.63;;
19776;SDS011;10047;42.490;26.012;2023-12-14T06:43:35;134.02;;;60.42;;
19776;SDS011;10047;42.490;26.012;2023-12-14T06:46:00;147.93;;;67.03;;
19776;SDS011;10047;42.490;26.012;2023-12-14T06:48:26;133.70;;;63.55;;
19776;SDS011;10047;42.490;26.012;2023-12-14T06:50:51;152.70;;;72.90;;
19776;SDS011;10047;42.490;26.012;2023-12-14T06:53:19;144.18;;;70.75;;
19776;SDS011;10047;42.490;26.012;2023-12-14T06:55:45;146.90;;;68.18;;
19776;SDS011;10047;42.490;26.012;2023-12-14T06:58:10;131.93;;;63.85;;
19776;SDS011;10047;42.490;26.012;2023-12-14T07:00:37;134.68;;;57.35;;
19776;SDS011;10047;42.490;26.012;2023-12-14T07:03:02;139.27;;;52.33;;
19776;SDS011;10047;42.490;26.012;2023-12-14T07:05:28;184.18;;;65.32;;
19776;SDS011;10047;42.490;26.012;2023-12-14T07:07:54;176.50;;;59.95;;
19776;SDS011;10047;42.490;26.012;2023-12-14T07:10:21;135.90;;;52.65;;
19776;SDS011;10047;42.490;26.012;2023-12-14T07:12:47;111.95;;;46.38;;
19776;SDS011;10047;42.490;26.012;2023-12-14T07:15:12;104.50;;;46.15;;
19776;SDS011;10047;42.490;26.012;2023-12-14T07:17:38;108.03;;;42.25;;
19776;SDS011;10047;42.490;26.012;2023-12-14T07:20:04;79.80;;;40.50;;
19776;SDS011;10047;42.490;26.012;2023-12-14T07:22:31;87.63;;;45.70;;
19776;SDS011;10047;42.490;26.012;2023-12-14T07:24:56;95.97;;;49.58;;
19776;SDS011;10047;42.490;26.012;2023-12-14T07:27:22;82.45;;;44.67;;
19776;SDS011;10047;42.490;26.012;2023-12-14T07:29:47;89.38;;;47.40;;
19776;SDS011;10047;42.490;26.012;2023-12-14T07:32:13;84.00;;;49.15;;
19776;SDS011;10047;42.490;26.012;2023-12-14T07:34:38;92.10;;;47.03;;
19776;SDS011;10047;42.490;26.012;2023-12-14T07:37:04;88.30;;;46.45;;
19776;SDS011;10047;42.490;26.012;2023-12-14T07:39:30;87.47;;;46.40;;
19776;SDS011;10047;42.490;26.012;2023-12-14T07:41:56;102.47;;;55.03;;
19776;SDS011;10047;42.490;26.012;2023-12-14T07:44:22;129.43;;;61.95;;
19776;SDS011;10047;42.490;26.012;2023-12-14T07:46:47;147.95;;;74.40;;
19776;SDS011;10047;42.490;26.012;2023-12-14T07:49:13;123.15;;;69.47;;
19776;SDS011;10047;42.490;26.012;2023-12-14T07:51:38;98.43;;;57.17;;
19776;SDS011;10047;42.490;26.012;2023-12-14T07:54:04;74.10;;;47.70;;
19776;SDS011;10047;42.490;26.012;2023-12-14T07:56:29;83.60;;;50.15;;
19776;SDS011;10047;42.490;26.012;2023-12-14T07:58:55;77.03;;;49.47;;
19776;SDS011;10047;42.490;26.012;2023-12-14T08:01:20;79.95;;;51.88;;
19776;SDS011;10047;42.490;26.012;2023-12-14T08:03:46;89.55;;;54.20;;
19776;SDS011;10047;42.490;26.012;2023-12-14T08:06:12;92.75;;;55.92;;
19776;SDS011;10047;42.490;26.012;2023-12-14T08:08:43;97.45;;;64.03;;
19776;SDS011;10047;42.490;26.012;2023-12-14T08:11:08;98.57;;;63.05;;
19776;SDS011;10047;42.490;26.012;2023-12-14T08:13:34;110.13;;;65.30;;
19776;SDS011;10047;42.490;26.012;2023-12-14T08:15:59;112.43;;;70.10;;
19776;SDS011;10047;42.490;26.012;2023-12-14T08:18:25;118.20;;;77.05;;
19776;SDS011;10047;42.490;26.012;2023-12-14T08:20:51;107.80;;;74.90;;
19776;SDS011;10047;42.490;26.012;2023-12-14T08:23:20;88.50;;;60.92;;
19776;SDS011;10047;42.490;26.012;2023-12-14T08:25:45;88.57;;;59.78;;
19776;SDS011;10047;42.490;26.012;2023-12-14T08:28:11;70.22;;;49.08;;
19776;SDS011;10047;42.490;26.012;2023-12-14T08:30:36;70.88;;;47.42;;
19776;SDS011;10047;42.490;26.012;2023-12-14T08:33:04;67.93;;;48.10;;
19776;SDS011;10047;42.490;26.012;2023-12-14T08:35:29;63.40;;;41.92;;
19776;SDS011;10047;42.490;26.012;2023-12-14T08:37:55;52.42;;;37.55;;
19776;SDS011;10047;42.490;26.012;2023-12-14T08:40:20;47.85;;;35.42;;
19776;SDS011;10047;42.490;26.012;2023-12-14T08:42:46;53.67;;;39.25;;
19776;SDS011;10047;42.490;26.012;2023-12-14T08:45:12;57.30;;;38.63;;
19776;SDS011;10047;42.490;26.012;2023-12-14T08:47:38;62.85;;;43.38;;
19776;SDS011;10047;42.490;26.012;2023-12-14T08:50:04;57.95;;;39.13;;
19776;SDS011;10047;42.490;26.012;2023-12-14T08:52:30;63.53;;;42.63;;
19776;SDS011;10047;42.490;26.012;2023-12-14T08:54:55;67.00;;;42.28;;
19776;SDS011;10047;42.490;26.012;2023-12-14T08:57:21;67.40;;;42.85;;
19776;SDS011;10047;42.490;26.012;2023-12-14T08:59:46;63.08;;;43.65;;
19776;SDS011;10047;42.490;26.012;2023-12-14T09:02:12;61.53;;;44.08;;
19776;SDS011;10047;42.490;26.012;2023-12-14T09:04:37;64.07;;;45.03;;
19776;SDS011;10047;42.490;26.012;2023-12-14T09:07:03;67.80;;;46.70;;
19776;SDS011;10047;42.490;26.012;2023-12-14T09:09:29;69.82;;;48.90;;
19776;SDS011;10047;42.490;26.012;2023-12-14T09:11:55;71.00;;;49.17;;
19776;SDS011;10047;42.490;26.012;2023-12-14T09:14:20;63.70;;;46.15;;
19776;SDS011;10047;42.490;26.012;2023-12-14T09:16:46;67.55;;;48.47;;
19776;SDS011;10047;42.490;26.012;2023-12-14T09:19:11;66.82;;;50.83;;
19776;SDS011;10047;42.490;26.012;2023-12-14T09:21:37;71.00;;;53.10;;
19776;SDS011;10047;42.490;26.012;2023-12-14T09:24:03;62.10;;;47.22;;
19776;SDS011;10047;42.490;26.012;2023-12-14T09:26:28;70.82;;;50.30;;
19776;SDS011;10047;42.490;26.012;2023-12-14T09:28:54;68.18;;;49.10;;
19776;SDS011;10047;42.490;26.012;2023-12-14T09:31:19;55.40;;;40.08;;
19776;SDS011;10047;42.490;26.012;2023-12-14T09:33:45;51.03;;;36.60;;
19776;SDS011;10047;42.490;26.012;2023-12-14T09:36:10;51.92;;;35.72;;
19776;SDS011;10047;42.490;26.012;2023-12-14T09:38:36;47.97;;;34.90;;
19776;SDS011;10047;42.490;26.012;2023-12-14T09:41:02;51.75;;;36.97;;
19776;SDS011;10047;42.490;26.012;2023-12-14T09:43:28;49.22;;;33.63;;
19776;SDS011;10047;42.490;26.012;2023-12-14T09:45:54;47.28;;;33.45;;
19776;SDS011;10047;42.490;26.012;2023-12-14T09:48:20;52.95;;;36.28;;
19776;SDS011;10047;42.490;26.012;2023-12-14T09:50:47;62.40;;;43.80;;
19776;SDS011;10047;42.490;26.012;2023-12-14T09:53:15;60.15;;;42.75;;
19776;SDS011;10047;42.490;26.012;2023-12-14T09:55:41;57.45;;;43.70;;
19776;SDS011;10047;42.490;26.012;2023-12-14T09:58:06;61.90;;;42.65;;
19776;SDS011;10047;42.490;26.012;2023-12-14T10:00:38;59.28;;;43.05;;
19776;SDS011;10047;42.490;26.012;2023-12-14T10:03:23;65.80;;;43.50;;
19776;SDS011;10047;42.490;26.012;2023-12-14T10:05:54;64.75;;;45.53;;
19776;SDS011;10047;42.490;26.012;2023-12-14T10:08:21;62.17;;;43.95;;
19776;SDS011;10047;42.490;26.012;2023-12-14T10:10:47;66.47;;;46.70;;
19776;SDS011;10047;42.490;26.012;2023-12-14T10:13:14;90.35;;;63.78;;
19776;SDS011;10047;42.490;26.012;2023-12-14T10:15:40;100.35;;;72.95;;
19776;SDS011;10047;42.490;26.012;2023-12-14T10:18:07;100.45;;;68.88;;
19776;SDS011;10047;42.490;26.012;2023-12-14T10:20:33;97.88;;;74.85;;
19776;SDS011;10047;42.490;26.012;2023-12-14T10:22:58;105.15;;;74.65;;
19776;SDS011;10047;42.490;26.012;2023-12-14T10:25:24;110.18;;;80.20;;
19776;SDS011;10047;42.490;26.012;2023-12-14T10:27:50;81.40;;;56.83;;
19776;SDS011;10047;42.490;26.012;2023-12-14T10:30:19;102.28;;;73.80;;
19776;SDS011;10047;42.490;26.012;2023-12-14T10:32:48;108.40;;;74.32;;
19776;SDS011;10047;42.490;26.012;2023-12-14T10:35:15;87.90;;;60.47;;
19776;SDS011;10047;42.490;26.012;2023-12-14T10:37:41;87.88;;;58.78;;
19776;SDS011;10047;42.490;26.012;2023-12-14T10:40:11;80.57;;;55.30;;
19776;SDS011;10047;42.490;26.012;2023-12-14T10:42:40;62.50;;;43.70;;
19776;SDS011;10047;42.490;26.012;2023-12-14T10:45:10;79.55;;;60.17;;
19776;SDS011;10047;42.490;26.012;2023-12-14T10:47:45;74.05;;;53.80;;
19776;SDS011;10047;42.490;26.012;2023-12-14T10:50:13;76.57;;;54.80;;
19776;SDS011;10047;42.490;26.012;2023-12-14T10:52:39;73.65;;;54.67;;
19776;SDS011;10047;42.490;26.012;2023-12-14T10:55:09;71.07;;;49.80;;
19776;SDS011;10047;42.490;26.012;2023-12-14T10:57:41;72.95;;;51.60;;
19776;SDS011;10047;42.490;26.012;2023-12-14T11:00:06;69.95;;;50.25;;
19776;SDS011;10047;42.490;26.012;2023-12-14T11:02:40;63.85;;;47.70;;
19776;SDS011;10047;42.490;26.012;2023-12-14T11:05:10;66.57;;;48.00;;
19776;SDS011;10047;42.490;26.012;2023-12-14T11:10:14;58.78;;;45.28;;
19776;SDS011;10047;42.490;26.012;2023-12-14T11:12:50;59.28;;;45.28;;
19776;SDS011;10047;42.490;26.012;2023-12-14T11:15:19;62.28;;;46.22;;
19776;SDS011;10047;42.490;26.012;2023-12-14T11:23:14;63.15;;;47.42;;
19776;SDS011;10047;42.490;26.012;2023-12-14T11:25:47;69.22;;;53.13;;
19776;SDS011;10047;42.490;26.012;2023-12-14T11:28:15;72.32;;;54.63;;
19776;SDS011;10047;42.490;26.012;2023-12-14T11:30:43;71.50;;;53.90;;
19776;SDS011;10047;42.490;26.012;2023-12-14T11:33:10;70.60;;;53.55;;
19776;SDS011;10047;42.490;26.012;2023-12-14T11:35:37;78.40;;;57.65;;
19776;SDS011;10047;42.490;26.012;2023-12-14T11:38:03;73.65;;;55.05;;
19776;SDS011;10047;42.490;26.012;2023-12-14T11:40:35;69.70;;;53.30;;
19776;SDS011;10047;42.490;26.012;2023-12-14T11:45:36;75.32;;;57.95;;
19776;SDS011;10047;42.490;26.012;2023-12-14T11:48:03;78.93;;;56.03;;
19776;SDS011;10047;42.490;26.012;2023-12-14T11:50:31;72.88;;;55.85;;
19776;SDS011;10047;42.490;26.012;2023-12-14T11:53:00;72.45;;;56.00;;
19776;SDS011;10047;42.490;26.012;2023-12-14T11:55:28;69.25;;;54.63;;
19776;SDS011;10047;42.490;26.012;2023-12-14T11:57:54;71.13;;;55.03;;
19776;SDS011;10047;42.490;26.012;2023-12-14T12:00:23;72.35;;;54.55;;
19776;SDS011;10047;42.490;26.012;2023-12-14T12:02:50;68.60;;;53.40;;
19776;SDS011;10047;42.490;26.012;2023-12-14T12:05:16;71.00;;;54.28;;
19776;SDS011;10047;42.490;26.012;2023-12-14T12:07:44;73.45;;;53.38;;
19776;SDS011;10047;42.490;26.012;2023-12-14T12:10:12;75.03;;;58.72;;
19776;SDS011;10047;42.490;26.012;2023-12-14T12:12:38;71.93;;;52.67;;
19776;SDS011;10047;42.490;26.012;2023-12-14T12:15:04;75.97;;;52.15;;
19776;SDS011;10047;42.490;26.012;2023-12-14T12:17:30;67.53;;;51.85;;
19776;SDS011;10047;42.490;26.012;2023-12-14T12:20:02;68.22;;;50.60;;
19776;SDS011;10047;42.490;26.012;2023-12-14T12:22:29;67.80;;;48.95;;
19776;SDS011;10047;42.490;26.012;2023-12-14T12:24:55;73.82;;;53.50;;
19776;SDS011;10047;42.490;26.012;2023-12-14T12:27:21;73.82;;;53.13;;
19776;SDS011;10047;42.490;26.012;2023-12-14T12:29:48;66.65;;;47.80;;
19776;SDS011;10047;42.490;26.012;2023-12-14T12:32:13;66.75;;;45.47;;
19776;SDS011;10047;42.490;26.012;2023-12-14T12:34:39;63.97;;;42.80;;
19776;SDS011;10047;42.490;26.012;2023-12-14T12:37:04;53.20;;;39.20;;
19776;SDS011;10047;42.490;26.012;2023-12-14T12:39:30;56.50;;;41.13;;
19776;SDS011;10047;42.490;26.012;2023-12-14T12:41:55;68.80;;;42.55;;
19776;SDS011;10047;42.490;26.012;2023-12-14T12:44:21;62.65;;;46.13;;
19776;SDS011;10047;42.490;26.012;2023-12-14T12:46:46;76.03;;;55.20;;
19776;SDS011;10047;42.490;26.012;2023-12-14T12:49:12;77.05;;;53.10;;
19776;SDS011;10047;42.490;26.012;2023-12-14T12:51:37;83.63;;;59.25;;
19776;SDS011;10047;42.490;26.012;2023-12-14T12:54:03;75.18;;;52.30;;
19776;SDS011;10047;42.490;26.012;2023-12-14T12:56:29;62.15;;;44.58;;
19776;SDS011;10047;42.490;26.012;2023-12-14T12:58:54;59.38;;;42.95;;
19776;SDS011;10047;42.490;26.012;2023-12-14T13:01:20;69.50;;;48.35;;
19776;SDS011;10047;42.490;26.012;2023-12-14T13:03:52;61.22;;;46.25;;
19776;SDS011;10047;42.490;26.012;2023-12-14T13:06:20;57.72;;;41.53;;
19776;SDS011;10047;42.490;26.012;2023-12-14T13:08:46;59.10;;;41.55;;
19776;SDS011;10047;42.490;26.012;2023-12-14T13:11:12;60.17;;;42.88;;
19776;SDS011;10047;42.490;26.012;2023-12-14T13:13:37;57.15;;;42.30;;
19776;SDS011;10047;42.490;26.012;2023-12-14T13:16:03;58.95;;;43.88;;
19776;SDS011;10047;42.490;26.012;2023-12-14T13:18:29;59.10;;;44.80;;
19776;SDS011;10047;42.490;26.012;2023-12-14T13:20:54;62.38;;;44.10;;
19776;SDS011;10047;42.490;26.012;2023-12-14T13:23:20;63.22;;;44.20;;
19776;SDS011;10047;42.490;26.012;2023-12-14T13:25:45;62.15;;;45.33;;
19776;SDS011;10047;42.490;26.012;2023-12-14T13:28:11;65.18;;;48.35;;
19776;SDS011;10047;42.490;26.012;2023-12-14T13:30:37;60.67;;;45.00;;
19776;SDS011;10047;42.490;26.012;2023-12-14T13:33:02;60.35;;;45.55;;
19776;SDS011;10047;42.490;26.012;2023-12-14T13:35:29;61.75;;;45.42;;
19776;SDS011;10047;42.490;26.012;2023-12-14T13:37:54;65.18;;;49.08;;
19776;SDS011;10047;42.490;26.012;2023-12-14T13:40:20;68.65;;;49.17;;
19776;SDS011;10047;42.490;26.012;2023-12-14T13:42:46;66.75;;;49.03;;
19776;SDS011;10047;42.490;26.012;2023-12-14T13:45:11;77.82;;;54.80;;
19776;SDS011;10047;42.490;26.012;2023-12-14T13:47:37;107.32;;;76.53;;
19776;SDS011;10047;42.490;26.012;2023-12-14T13:50:02;130.02;;;93.43;;
19776;SDS011;10047;42.490;26.012;2023-12-14T13:52:29;104.57;;;73.30;;
19776;SDS011;10047;42.490;26.012;2023-12-14T13:54:56;120.03;;;85.15;;
19776;SDS011;10047;42.490;26.012;2023-12-14T13:57:24;130.77;;;93.97;;
19776;SDS011;10047;42.490;26.012;2023-12-14T13:59:49;104.07;;;73.53;;
19776;SDS011;10047;42.490;26.012;2023-12-14T14:02:15;101.40;;;69.47;;
19776;SDS011;10047;42.490;26.012;2023-12-14T14:04:40;195.25;;;138.52;;
19776;SDS011;10047;42.490;26.012;2023-12-14T14:07:06;117.57;;;84.07;;
19776;SDS011;10047;42.490;26.012;2023-12-14T14:09:31;138.18;;;97.90;;